Home > Products > Valid Products > TAF

000
FTUS41 KBUF 221729
TAFBUF
TAF
KBUF 221729Z 2218/2318 24010KT P6SM BKN040 BKN060
     FM222000 30010G17KT P6SM SCT060
     FM230200 33006KT P6SM FEW250
     FM230400 VRB03KT P6SM SKC
     FM230700 24004KT P6SM SKC
     FM230900 20005KT P6SM SKC
     FM231400 24007KT P6SM FEW250
     FM231600 24011KT P6SM FEW250=



000
FTUS41 KBUF 221729
TAFROC
TAF
KROC 221729Z 2218/2318 02010G18KT P6SM FEW040 SCT080
     FM230500 28008KT P6SM SKC
     FM230900 24006KT P6SM SKC=



000
FTUS41 KBUF 221729
TAFART
TAF
KART 221729Z 2218/2318 25011G18KT P6SM VCSH BKN050
     FM222200 28011KT P6SM SCT060
     FM230200 01006KT P6SM SCT250
     FM230500 28004KT P6SM FEW250
     FM231100 25008KT P6SM SKC
     FM231500 26012KT P6SM FEW200=



000
FTUS41 KBUF 221729
TAFIAG
TAF
KIAG 221729Z 2218/2318 33008KT P6SM FEW030 SCT070
     FM222000 32011G18KT P6SM FEW250
     FM230200 33007KT P6SM SKC
     FM230500 VRB03KT P6SM SKC
     FM230800 22004KT P6SM SKC
     FM231400 23008KT P6SM FEW250
     FM231700 23012KT P6SM FEW250=



000
FTUS41 KBUF 221729
TAFJHW
TAF
KJHW 221729Z 2218/2318 30014G21KT P6SM SCT040
     FM230200 30008KT P6SM FEW250
     FM230600 28004KT P6SM SKC
     FM230700 VRB03KT P6SM SKC
     FM231400 25004KT P6SM FEW250
      AMD LTD TO CLD VIS AND WIND=



000
FTUS41 KBUF 221500 AAA
TAFBUF
TAF AMD
KBUF 221500Z 2215/2312 24006KT P6SM SCT040
     FM221700 29012G18KT P6SM SCT060
     FM222200 30011KT P6SM FEW250
     FM230500 VRB04KT P6SM SKC
     FM231000 22005KT P6SM SKC=



000
FTUS41 KBUF 221500 AAA
TAFROC
TAF AMD
KROC 221500Z 2215/2312 29004KT P6SM FEW040 BKN080
     FM221900 31008KT P6SM SCT060
     FM230100 29012KT P6SM SKC
     FM230600 26005KT P6SM SKC=



000
FTUS41 KBUF 221500 AAA
TAFART
TAF AMD
KART 221500Z 2215/2312 34006KT P6SM BKN090
     FM221800 31007KT P6SM SCT050
     FM230200 29005KT P6SM SCT250
     FM230500 VRB03KT P6SM SKC
     FM231000 25004KT P6SM SKC=



000
FTUS41 KBUF 221500 AAA
TAFJHW
TAF AMD
KJHW 221500Z 2215/2312 27010G22KT P6SM SCT040
     FM221800 30012G18KT P6SM SCT050
     FM230000 30010KT P6SM SKC
     FM230500 VRB04KT P6SM SKC
      AMD LTD TO CLD VIS AND WIND=



000
FTUS41 KBUF 221500 AAA
TAFIAG
TAF AMD
KIAG 221500Z 2215/2312 32003KT P6SM SCT040
     FM221800 31012G18KT P6SM SCT060
     FM222300 32012KT P6SM FEW250
     FM230500 VRB04KT P6SM SKC=



000
FTUS41 KBUF 221122
TAFART
TAF
KART 221122Z 2212/2312 35008KT P6SM SCT080
     FM221500 29012KT P6SM SCT070
     FM230200 29005KT P6SM SCT250
     FM230500 VRB03KT P6SM SKC
     FM231000 25004KT P6SM SKC=



000
FTUS41 KBUF 221122
TAFBUF
TAF
KBUF 221122Z 2212/2312 27010KT P6SM FEW120
     FM221700 29012G18KT P6SM SCT060
     FM222200 30011KT P6SM FEW250
     FM230500 VRB04KT P6SM SKC
     FM231000 22005KT P6SM SKC=



000
FTUS41 KBUF 221122
TAFJHW
TAF
KJHW 221122Z 2212/2312 27008KT P6SM BKN070
     FM221300 28009KT P6SM SCT070
     FM221800 30012G18KT P6SM SCT250
     FM230000 30010KT P6SM SKC
     FM230500 VRB04KT P6SM SKC
      AMD LTD TO CLD VIS AND WIND=



000
FTUS41 KBUF 221122
TAFIAG
TAF
KIAG 221122Z 2212/2312 30010KT P6SM FEW250
     FM221800 31012G18KT P6SM SCT060
     FM222300 32012KT P6SM FEW250
     FM230500 VRB04KT P6SM SKC=



000
FTUS41 KBUF 221122
TAFROC
TAF
KROC 221122Z 2212/2312 30012G18KT P6SM SCT090
     FM221400 30014G21KT P6SM SCT250
     FM230100 29012KT P6SM SKC
     FM230600 26005KT P6SM SKC=



000
FTUS41 KBUF 221122
TAFJHW
TAF
KJHW 221122Z 2212/2312 27008KT P6SM BKN070
     FM221300 28009KT P6SM SCT070
     FM221800 30012G18KT P6SM SCT250
     FM230000 30010KT P6SM SKC
     FM230500 VRB04KT P6SM SKC
      AMD LTD TO CLD VIS AND WIND=



000
FTUS41 KBUF 221122
TAFBUF
TAF
KBUF 221122Z 2212/2312 27010KT P6SM FEW120
     FM221700 29012G18KT P6SM SCT060
     FM222200 30011KT P6SM FEW250
     FM230500 VRB04KT P6SM SKC
     FM231000 22005KT P6SM SKC=



000
FTUS41 KBUF 221122
TAFIAG
TAF
KIAG 221122Z 2212/2312 30010KT P6SM FEW250
     FM221800 31012G18KT P6SM SCT060
     FM222300 32012KT P6SM FEW250
     FM230500 VRB04KT P6SM SKC=



000
FTUS41 KBUF 221122
TAFART
TAF
KART 221122Z 2212/2312 35008KT P6SM SCT080
     FM221500 29012KT P6SM SCT070
     FM230200 29005KT P6SM SCT250
     FM230500 VRB03KT P6SM SKC
     FM231000 25004KT P6SM SKC=



000
FTUS41 KBUF 221122
TAFROC
TAF
KROC 221122Z 2212/2312 30012G18KT P6SM SCT090
     FM221400 30014G21KT P6SM SCT250
     FM230100 29012KT P6SM SKC
     FM230600 26005KT P6SM SKC=



000
FTUS41 KBUF 221041 AAB
TAFROC
TAF AMD
KROC 221041Z 2211/2306 29012KT P6SM BKN070
     FM221300 29012G18KT P6SM SCT070
     FM221500 29014G20KT P6SM SCT250
     FM230100 29012KT P6SM SKC
     FM230500 27006KT P6SM SKC=



000
FTUS41 KBUF 220850 AAA
TAFART
TAF AMD
KART 220850Z 2209/2306 25010KT P6SM BKN080
     FM221100 30008KT P6SM BKN060
     FM222000 28011KT P6SM SCT070
     FM230200 29005KT P6SM SCT250
     FM230500 VRB03KT P6SM SKC=



000
FTUS41 KBUF 220850 AAA
TAFROC
TAF AMD
KROC 220850Z 2209/2306 26012KT P6SM BKN080
     FM221300 29012G18KT P6SM SCT070
     FM221500 29014G20KT P6SM SCT250
     FM230100 29012KT P6SM SKC
     FM230500 27006KT P6SM SKC=



000
FTUS41 KBUF 220850 AAA
TAFBUF
TAF AMD
KBUF 220850Z 2209/2306 25010KT P6SM BKN070
     FM221400 28011KT P6SM BKN250
     FM221700 29012G18KT P6SM SCT060
     FM230000 31010KT P6SM SKC
     FM230500 25004KT P6SM SKC=



000
FTUS41 KBUF 220850 AAA
TAFIAG
TAF AMD
KIAG 220850Z 2209/2306 26010KT P6SM BKN080
     FM221200 29009KT P6SM SCT070
     FM221800 31012G18KT P6SM SCT070
     FM230000 32011KT P6SM SKC
     FM230500 28004KT P6SM SKC=



000
FTUS41 KBUF 220850 AAA
TAFJHW
TAF AMD
KJHW 220850Z 2209/2306 26008KT P6SM BKN070
     FM221600 30012G18KT P6SM SCT250
     FM230000 30011KT P6SM SKC
     FM230500 28004KT P6SM SKC
      AMD LTD TO CLD VIS AND WIND=



000
FTUS41 KBUF 220850 AAA
TAFBUF
TAF AMD
KBUF 220850Z 2209/2306 25010KT P6SM BKN070
     FM221400 28011KT P6SM BKN250
     FM221700 29012G18KT P6SM SCT060
     FM230000 31010KT P6SM SKC
     FM230500 25004KT P6SM SKC=



000
FTUS41 KBUF 220850 AAA
TAFART
TAF AMD
KART 220850Z 2209/2306 25010KT P6SM BKN080
     FM221100 30008KT P6SM BKN060
     FM222000 28011KT P6SM SCT070
     FM230200 29005KT P6SM SCT250
     FM230500 VRB03KT P6SM SKC=



000
FTUS41 KBUF 220850 AAA
TAFROC
TAF AMD
KROC 220850Z 2209/2306 26012KT P6SM BKN080
     FM221300 29012G18KT P6SM SCT070
     FM221500 29014G20KT P6SM SCT250
     FM230100 29012KT P6SM SKC
     FM230500 27006KT P6SM SKC=



000
FTUS41 KBUF 220850 AAA
TAFJHW
TAF AMD
KJHW 220850Z 2209/2306 26008KT P6SM BKN070
     FM221600 30012G18KT P6SM SCT250
     FM230000 30011KT P6SM SKC
     FM230500 28004KT P6SM SKC
      AMD LTD TO CLD VIS AND WIND=



000
FTUS41 KBUF 220850 AAA
TAFIAG
TAF AMD
KIAG 220850Z 2209/2306 26010KT P6SM BKN080
     FM221200 29009KT P6SM SCT070
     FM221800 31012G18KT P6SM SCT070
     FM230000 32011KT P6SM SKC
     FM230500 28004KT P6SM SKC=



000
FTUS41 KBUF 220535
TAFROC
TAF
KROC 220535Z 2206/2306 25012KT P6SM FEW150
     FM220900 25010KT P6SM SCT060
     FM221300 29012G18KT P6SM SCT070
     FM221500 29014G20KT P6SM SCT250
     FM230100 29012KT P6SM SKC
     FM230500 27006KT P6SM SKC=



000
FTUS41 KBUF 220535
TAFJHW
TAF
KJHW 220535Z 2206/2306 23008KT P6SM SCT080
     FM220900 26008KT P6SM BKN050
     FM221600 30012G18KT P6SM SCT250
     FM230000 30011KT P6SM SKC
     FM230500 28004KT P6SM SKC
      AMD LTD TO CLD VIS AND WIND=



000
FTUS41 KBUF 220535
TAFBUF
TAF
KBUF 220535Z 2206/2306 24015G21KT P6SM SCT100
     FM220800 26010KT P6SM BKN060
     FM221400 28011KT P6SM BKN250
     FM221700 29012G18KT P6SM SCT060
     FM230000 31010KT P6SM SKC
     FM230500 25004KT P6SM SKC=



000
FTUS41 KBUF 220535
TAFART
TAF
KART 220535Z 2206/2306 20004KT P6SM BKN100
     FM220800 23007KT P6SM BKN060
     FM221100 30008KT P6SM BKN060
     FM222000 28011KT P6SM SCT070
     FM230200 29005KT P6SM SCT250
     FM230500 VRB03KT P6SM SKC=



000
FTUS41 KBUF 220535
TAFIAG
TAF
KIAG 220535Z 2206/2306 23012G18KT P6SM BKN100
     FM220800 26010KT P6SM BKN060
     FM221200 29009KT P6SM SCT070
     FM221800 31012G18KT P6SM SCT070
     FM230000 32011KT P6SM SKC
     FM230500 28004KT P6SM SKC=



000
FTUS41 KBUF 220535
TAFART
TAF
KART 220535Z 2206/2306 20004KT P6SM BKN100
     FM220800 23007KT P6SM BKN060
     FM221100 30008KT P6SM BKN060
     FM222000 28011KT P6SM SCT070
     FM230200 29005KT P6SM SCT250
     FM230500 VRB03KT P6SM SKC=



000
FTUS41 KBUF 220535
TAFJHW
TAF
KJHW 220535Z 2206/2306 23008KT P6SM SCT080
     FM220900 26008KT P6SM BKN050
     FM221600 30012G18KT P6SM SCT250
     FM230000 30011KT P6SM SKC
     FM230500 28004KT P6SM SKC
      AMD LTD TO CLD VIS AND WIND=



000
FTUS41 KBUF 220535
TAFBUF
TAF
KBUF 220535Z 2206/2306 24015G21KT P6SM SCT100
     FM220800 26010KT P6SM BKN060
     FM221400 28011KT P6SM BKN250
     FM221700 29012G18KT P6SM SCT060
     FM230000 31010KT P6SM SKC
     FM230500 25004KT P6SM SKC=



000
FTUS41 KBUF 220535
TAFROC
TAF
KROC 220535Z 2206/2306 25012KT P6SM FEW150
     FM220900 25010KT P6SM SCT060
     FM221300 29012G18KT P6SM SCT070
     FM221500 29014G20KT P6SM SCT250
     FM230100 29012KT P6SM SKC
     FM230500 27006KT P6SM SKC=



000
FTUS41 KBUF 220535
TAFIAG
TAF
KIAG 220535Z 2206/2306 23012G18KT P6SM BKN100
     FM220800 26010KT P6SM BKN060
     FM221200 29009KT P6SM SCT070
     FM221800 31012G18KT P6SM SCT070
     FM230000 32011KT P6SM SKC
     FM230500 28004KT P6SM SKC=



000
FTUS41 KBUF 220254 AAA
TAFIAG
TAF AMD
KIAG 220254Z 2203/2224 23016KT P6SM BKN150
     FM220400 23012KT P6SM SCT080
     FM221100 30008KT P6SM BKN040
     FM221600 31014G22KT P6SM SCT050=



000
FTUS41 KBUF 220254 AAA
TAFBUF
TAF AMD
KBUF 220254Z 2203/2224 24018KT P6SM BKN150
     FM220400 25012KT P6SM SCT080
     FM221100 29010KT P6SM BKN040
     FM221600 28014G22KT P6SM SCT050=



000
FTUS41 KBUF 220254 AAA
TAFROC
TAF AMD
KROC 220254Z 2203/2224 24008KT P6SM BKN150
     FM220500 25008KT P6SM SCT080
     FM221200 30010KT P6SM BKN040
     FM221700 30014G22KT P6SM SCT050=



000
FTUS41 KBUF 220254 AAA
TAFJHW
TAF AMD
KJHW 220254Z 2203/2224 25008KT P6SM SCT100
     FM221100 27008KT P6SM BKN040
     FM221300 30012KT P6SM BKN025
     FM221900 30014KT P6SM SCT035
      AMD LTD TO CLD VIS AND WIND=



000
FTUS41 KBUF 220254 AAA
TAFART
TAF AMD
KART 220254Z 2203/2224 23010KT P6SM SCT200
     FM220800 23005KT P6SM BKN080
     FM221300 32008KT P6SM BKN040
     FM221900 26012G20KT P6SM SCT050=



000
FTUS41 KBUF 212320
TAFIAG
TAF
KIAG 212320Z 2200/2224 23016KT P6SM BKN150
     FM220500 23012KT P6SM SCT080
     FM221100 30008KT P6SM BKN040
     FM221600 31014G22KT P6SM SCT050=



000
FTUS41 KBUF 212320
TAFROC
TAF
KROC 212320Z 2200/2224 24008KT P6SM BKN150
     FM220500 25008KT P6SM SCT008
     FM221200 30010KT P6SM BKN040
     FM221700 30014G22KT P6SM SCT050=



000
FTUS41 KBUF 212320
TAFBUF
TAF
KBUF 212320Z 2200/2224 24018KT P6SM BKN150
     FM220500 25012KT P6SM SCT080
     FM221100 29010KT P6SM BKN040
     FM221600 28014G22KT P6SM SCT050=



000
FTUS41 KBUF 212320
TAFIAG
TAF
KIAG 212320Z 2200/2224 23016KT P6SM BKN150
     FM220500 23012KT P6SM SCT080
     FM221100 30008KT P6SM BKN040
     FM221600 31014G22KT P6SM SCT050=



000
FTUS41 KBUF 212320
TAFJHW
TAF
KJHW 212320Z 2200/2224 27008KT P6SM BKN100
     FM220300 25006KT P6SM SCT100
     FM221100 27008KT P6SM BKN040
     FM221300 30012KT P6SM BKN025
     FM221900 30014KT P6SM SCT035
      AMD LTD TO CLD VIS AND WIND=



000
FTUS41 KBUF 212320
TAFART
TAF
KART 212320Z 2200/2224 23010KT P6SM SCT200
     FM220800 23005KT P6SM BKN080
     FM221300 32008KT P6SM BKN040
     FM221900 26012G20KT P6SM SCT050=



000
FTUS41 KBUF 212320
TAFART
TAF
KART 212320Z 2200/2224 23010KT P6SM SCT200
     FM220800 23005KT P6SM BKN080
     FM221300 32008KT P6SM BKN040
     FM221900 26012G20KT P6SM SCT050=



000
FTUS41 KBUF 212320
TAFROC
TAF
KROC 212320Z 2200/2224 24008KT P6SM BKN150
     FM220500 25008KT P6SM SCT008
     FM221200 30010KT P6SM BKN040
     FM221700 30014G22KT P6SM SCT050=



000
FTUS41 KBUF 212320
TAFJHW
TAF
KJHW 212320Z 2200/2224 27008KT P6SM BKN100
     FM220300 25006KT P6SM SCT100
     FM221100 27008KT P6SM BKN040
     FM221300 30012KT P6SM BKN025
     FM221900 30014KT P6SM SCT035
      AMD LTD TO CLD VIS AND WIND=



000
FTUS41 KBUF 212320
TAFBUF
TAF
KBUF 212320Z 2200/2224 24018KT P6SM BKN150
     FM220500 25012KT P6SM SCT080
     FM221100 29010KT P6SM BKN040
     FM221600 28014G22KT P6SM SCT050=



000
FTUS41 KBUF 212134 AAA
TAFIAG
TAF AMD
KIAG 212134Z 2122/2218 22014G22KT P6SM BKN200
     FM220500 23010KT P6SM SCT050 BKN200
     FM220800 26007KT P6SM SCT060
     FM221100 28008KT P6SM BKN050
     FM221500 31010KT P6SM BKN080
     FM221700 31013KT P6SM SCT250=



000
FTUS41 KBUF 212134 AAA
TAFBUF
TAF AMD
KBUF 212134Z 2122/2218 24016G24KT P6SM BKN200
     FM220500 24010KT P6SM SCT050 BKN200
     FM220900 25007KT P6SM SCT250
     FM221100 26009KT P6SM BKN050=



000
FTUS41 KBUF 212134 AAA
TAFBUF
TAF AMD
KBUF 212134Z 2122/2218 24016G24KT P6SM BKN200
     FM220500 24010KT P6SM SCT050 BKN200
     FM220900 25007KT P6SM SCT250
     FM221100 26009KT P6SM BKN050=



000
FTUS41 KBUF 212134 AAA
TAFART
TAF AMD
KART 212134Z 2122/2218 24014KT P6SM SKC
     FM212300 22008KT P6SM SCT200
     FM220800 23005KT P6SM BKN080
     FM221100 29006KT P6SM BKN050
     FM221500 32010KT P6SM BKN080=



000
FTUS41 KBUF 212134 AAA
TAFROC
TAF AMD
KROC 212134Z 2122/2218 36007KT P6SM BKN100
     FM220000 24007KT P6SM BKN150
     FM221100 27010KT P6SM BKN050
     FM221500 31011KT P6SM BKN050
     FM221700 30013KT P6SM SCT050=



000
FTUS41 KBUF 212134 AAA
TAFJHW
TAF AMD
KJHW 212134Z 2122/2218 27006KT P6SM BKN100
     FM220200 24007KT P6SM SCT100
     FM220900 27006KT P6SM BKN080
     FM221400 29010KT P6SM BKN050
      AMD LTD TO CLD VIS AND WIND=



000
FTUS41 KBUF 211721
TAFART
TAF
KART 211721Z 2118/2218 24014KT P6SM FEW250
     FM212300 22008KT P6SM SCT200
     FM220800 23005KT P6SM BKN080
     FM220900 24005KT P6SM BKN050
     FM221100 29006KT P6SM BKN050
     FM221500 32010KT P6SM BKN080=



000
FTUS41 KBUF 211721
TAFIAG
TAF
KIAG 211721Z 2118/2218 22011KT P6SM FEW250
     FM220800 26007KT P6SM SCT060
     FM221100 28008KT P6SM BKN050
     FM221500 31010KT P6SM BKN080
     FM221700 31013KT P6SM SCT250=



000
FTUS41 KBUF 211721
TAFJHW
TAF
KJHW 211721Z 2118/2218 29007KT P6SM BKN080
     FM220100 25006KT P6SM BKN100
     FM220200 24007KT P6SM SCT100
     FM220900 27006KT P6SM BKN080
     FM221400 29010KT P6SM BKN050
      AMD LTD TO CLD VIS AND WIND=



000
FTUS41 KBUF 211721
TAFBUF
TAF
KBUF 211721Z 2118/2218 24012KT P6SM SCT250
     FM220900 25007KT P6SM SCT250
     FM221100 26009KT P6SM BKN050=



000
FTUS41 KBUF 211721
TAFROC
TAF
KROC 211721Z 2118/2218 28008KT P6SM FEW140
     FM220000 24008KT P6SM BKN130
     FM221100 27010KT P6SM BKN050
     FM221500 31011KT P6SM BKN050
     FM221700 30013KT P6SM SCT050=



000
FTUS41 KBUF 211518 AAA
TAFJHW
TAF AMD
KJHW 211518Z 2115/2212 25005KT P6SM SCT050
     FM212300 27006KT P6SM BKN120
     FM220800 26008KT P6SM BKN070
      AMD LTD TO CLD VIS AND WIND=



000
FTUS41 KBUF 211518 AAA
TAFIAG
TAF AMD
KIAG 211518Z 2115/2212 26006KT P6SM SCT250
     FM211700 24011KT P6SM SCT130
     FM211900 24012G18KT P6SM SCT150
     FM212300 22011KT P6SM BKN250
     FM220500 26009KT P6SM BKN070=



000
FTUS41 KBUF 211518 AAA
TAFROC
TAF AMD
KROC 211518Z 2115/2212 26008KT P6SM SCT140
     FM212000 27008KT P6SM SCT140
     FM212300 25008KT P6SM BKN200
     FM220500 25010KT P6SM BKN090=



000
FTUS41 KBUF 211518 AAA
TAFBUF
TAF AMD
KBUF 211518Z 2115/2212 22007KT P6SM SCT250
     FM211600 24011KT P6SM SCT250
     FM212000 24012G18KT P6SM BKN140
     FM220000 23012KT P6SM BKN200
     FM220500 24010KT P6SM BKN070=



000
FTUS41 KBUF 211518 AAA
TAFART
TAF AMD
KART 211518Z 2115/2212 24013G20KT P6SM BKN090
     FM211600 23014G20KT P6SM SCT100
     FM212000 23012KT P6SM SCT200
     FM220500 22007KT P6SM BKN090
     FM220900 28006KT P6SM BKN070=



000
FTUS41 KBUF 211127
TAFROC
TAF
KROC 211127Z 2112/2212 23008KT P6SM BKN140
     FM211500 26008KT P6SM BKN090
     FM212000 27008KT P6SM BKN140
     FM212300 25008KT P6SM BKN200
     FM220500 25010KT P6SM BKN090=



000
FTUS41 KBUF 211127
TAFBUF
TAF
KBUF 211127Z 2112/2212 20007KT P6SM BKN080
     FM211600 24011KT P6SM BKN100
     FM212000 24012G18KT P6SM BKN140
     FM220000 23012KT P6SM BKN200
     FM220500 24010KT P6SM BKN070=



000
FTUS41 KBUF 211127
TAFJHW
TAF
KJHW 211127Z 2112/2212 VRB03KT P6SM BKN070
     FM211500 25005KT P6SM BKN080
     FM212300 27006KT P6SM BKN120
     FM220800 26008KT P6SM BKN070
      AMD LTD TO CLD VIS AND WIND=



000
FTUS41 KBUF 211127
TAFART
TAF
KART 211127Z 2112/2212 21008KT P6SM BKN090
     FM211600 23014G20KT P6SM SCT100
     FM212000 23012KT P6SM SCT200
     FM220500 22007KT P6SM BKN090
     FM220900 28006KT P6SM BKN070=



000
FTUS41 KBUF 211127
TAFIAG
TAF
KIAG 211127Z 2112/2212 23006KT P6SM BKN120
     FM211700 24011KT P6SM SCT130
     FM211900 24012G18KT P6SM SCT150
     FM212300 22011KT P6SM BKN250
     FM220500 26009KT P6SM BKN070=



000
FTUS41 KBUF 211127
TAFIAG
TAF
KIAG 211127Z 2112/2212 23006KT P6SM BKN120
     FM211700 24011KT P6SM SCT130
     FM211900 24012G18KT P6SM SCT150
     FM212300 22011KT P6SM BKN250
     FM220500 26009KT P6SM BKN070=



000
FTUS41 KBUF 210857 AAA
TAFROC
TAF AMD
KROC 210857Z 2109/2206 24006KT P6SM OVC130
     FM211200 23006KT P6SM BKN100
     FM211600 27009KT P6SM BKN090
     FM220000 24009KT P6SM BKN130=



000
FTUS41 KBUF 210857 AAA
TAFART
TAF AMD
KART 210857Z 2109/2206 20006KT P6SM BKN130
     FM211200 23008KT P6SM BKN080
     FM211600 23014G20KT P6SM SCT100
     FM212100 22011KT P6SM SCT140
     FM220000 22006KT P6SM SCT200=



000
FTUS41 KBUF 210857 AAA
TAFIAG
TAF AMD
KIAG 210857Z 2109/2206 26005KT P6SM OVC110
     FM211100 23004KT P6SM BKN090
     FM211700 24012G18KT P6SM SCT120
     FM220000 22011KT P6SM BKN200
     FM220500 24010KT P6SM BKN130=



000
FTUS41 KBUF 210857 AAA
TAFBUF
TAF AMD
KBUF 210857Z 2109/2206 23005KT P6SM OVC110
     FM211200 22005KT P6SM BKN090
     FM211700 24012G18KT P6SM BKN110
     FM220000 23011KT P6SM BKN130
     FM220500 23010KT P6SM BKN090=



000
FTUS41 KBUF 210857 AAA
TAFJHW
TAF AMD
KJHW 210857Z 2109/2206 VRB04KT P6SM BKN070
     FM211600 28008KT P6SM BKN070
     FM212300 26007KT P6SM BKN100
      AMD LTD TO CLD VIS AND WIND=



000
FTUS41 KBUF 210537
TAFJHW
TAF
KJHW 210537Z 2106/2206 VRB04KT P6SM OVC100
     FM211100 VRB04KT P6SM BKN070
     FM211600 28008KT P6SM BKN070
     FM212300 26007KT P6SM BKN100
      AMD LTD TO CLD VIS AND WIND=



000
FTUS41 KBUF 210537
TAFIAG
TAF
KIAG 210537Z 2106/2206 VRB03KT P6SM OVC140
     FM211000 23004KT P6SM BKN090
     FM211700 24012G18KT P6SM SCT120
     FM220000 22011KT P6SM BKN200
     FM220500 24010KT P6SM BKN130=



000
FTUS41 KBUF 210537
TAFART
TAF
KART 210537Z 2106/2206 17006KT P6SM BKN250
     FM210900 20006KT P6SM BKN130
     FM211200 23008KT P6SM BKN080
     FM211600 23014G20KT P6SM SCT100
     FM212100 22011KT P6SM SCT140
     FM220000 22006KT P6SM SCT200=



000
FTUS41 KBUF 210537
TAFROC
TAF
KROC 210537Z 2106/2206 23006KT P6SM OVC100
     FM211200 23006KT P6SM BKN100
     FM211600 27009KT P6SM BKN090
     FM220000 24009KT P6SM BKN130=



000
FTUS41 KBUF 210537
TAFBUF
TAF
KBUF 210537Z 2106/2206 23005KT P6SM OVC140
     FM211200 22005KT P6SM BKN090
     FM211700 24012G18KT P6SM BKN110
     FM220000 23011KT P6SM BKN130
     FM220500 23010KT P6SM BKN090=



000
FTUS41 KBUF 210248 AAA
TAFIAG
TAF AMD
KIAG 210248Z 2103/2124 24008KT P6SM BKN200
     FM210600 24005KT P6SM BKN100
     FM211500 25010KT P6SM SCT100=



000
FTUS41 KBUF 210248 AAA
TAFROC
TAF AMD
KROC 210248Z 2103/2124 26006KT P6SM BKN200
     FM210600 26005KT P6SM BKN100
     FM211400 26008KT P6SM SCT080=



000
FTUS41 KBUF 210248 AAA
TAFBUF
TAF AMD
KBUF 210248Z 2103/2124 23007KT P6SM BKN200
     FM210600 23005KT P6SM BKN100
     FM211400 23008KT P6SM SCT100
     FM212000 24012KT P6SM BKN080=



000
FTUS41 KBUF 210248 AAA
TAFART
TAF AMD
KART 210248Z 2103/2124 22005KT P6SM SCT200
     FM210800 23006KT P6SM BKN150
     FM211400 23010KT P6SM SCT080=



000
FTUS41 KBUF 210248 AAA
TAFJHW
TAF AMD
KJHW 210248Z 2103/2124 26005KT P6SM BKN120
     FM210400 VRB03KT P6SM BKN080
     FM211300 27005KT P6SM BKN050
     FM212000 30008KT P6SM BKN080
      AMD LTD TO CLD VIS AND WIND=



000
FTUS41 KBUF 210248 AAA
TAFJHW
TAF AMD
KJHW 210248Z 2103/2124 26005KT P6SM BKN120
     FM210400 VRB03KT P6SM BKN080
     FM211300 27005KT P6SM BKN050
     FM212000 30008KT P6SM BKN080
      AMD LTD TO CLD VIS AND WIND=



000
FTUS41 KBUF 210248 AAA
TAFROC
TAF AMD
KROC 210248Z 2103/2124 26006KT P6SM BKN200
     FM210600 26005KT P6SM BKN100
     FM211400 26008KT P6SM SCT080=



000
FTUS41 KBUF 210248 AAA
TAFIAG
TAF AMD
KIAG 210248Z 2103/2124 24008KT P6SM BKN200
     FM210600 24005KT P6SM BKN100
     FM211500 25010KT P6SM SCT100=



000
FTUS41 KBUF 210248 AAA
TAFBUF
TAF AMD
KBUF 210248Z 2103/2124 23007KT P6SM BKN200
     FM210600 23005KT P6SM BKN100
     FM211400 23008KT P6SM SCT100
     FM212000 24012KT P6SM BKN080=



000
FTUS41 KBUF 210248 AAA
TAFART
TAF AMD
KART 210248Z 2103/2124 22005KT P6SM SCT200
     FM210800 23006KT P6SM BKN150
     FM211400 23010KT P6SM SCT080=



000
FTUS41 KBUF 202322
TAFJHW
TAF
KJHW 202322Z 2100/2124 31006KT P6SM BKN150
     FM210300 VRB03KT P6SM BKN080
     FM211300 27005KT P6SM BKN050
     FM212000 30008KT P6SM BKN080
      AMD LTD TO CLD VIS AND WIND=



000
FTUS41 KBUF 202322
TAFROC
TAF
KROC 202322Z 2100/2124 29007KT P6SM SCT200
     FM210300 24005KT P6SM BKN150
     FM211400 26008KT P6SM SCT080=



000
FTUS41 KBUF 202322
TAFART
TAF
KART 202322Z 2100/2124 23010KT P6SM SKC
     FM210300 22005KT P6SM SCT200
     FM211000 23006KT P6SM BKN100
     FM211400 23010KT P6SM SCT080=



000
FTUS41 KBUF 202322
TAFBUF
TAF
KBUF 202322Z 2100/2124 24010KT P6SM SCT200
     FM210300 23005KT P6SM BKN150
     FM211400 23008KT P6SM SCT100
     FM212000 24012KT P6SM BKN080=



000
FTUS41 KBUF 202322
TAFIAG
TAF
KIAG 202322Z 2100/2124 23010KT P6SM SCT200
     FM210300 24004KT P6SM BKN150
     FM211500 25010KT P6SM SCT100=



000
FTUS41 KBUF 202322
TAFROC
TAF
KROC 202322Z 2100/2124 29007KT P6SM SCT200
     FM210300 24005KT P6SM BKN150
     FM211400 26008KT P6SM SCT080=



000
FTUS41 KBUF 202322
TAFJHW
TAF
KJHW 202322Z 2100/2124 31006KT P6SM BKN150
     FM210300 VRB03KT P6SM BKN080
     FM211300 27005KT P6SM BKN050
     FM212000 30008KT P6SM BKN080
      AMD LTD TO CLD VIS AND WIND=



000
FTUS41 KBUF 202322
TAFIAG
TAF
KIAG 202322Z 2100/2124 23010KT P6SM SCT200
     FM210300 24004KT P6SM BKN150
     FM211500 25010KT P6SM SCT100=



000
FTUS41 KBUF 202322
TAFART
TAF
KART 202322Z 2100/2124 23010KT P6SM SKC
     FM210300 22005KT P6SM SCT200
     FM211000 23006KT P6SM BKN100
     FM211400 23010KT P6SM SCT080=



000
FTUS41 KBUF 202322
TAFBUF
TAF
KBUF 202322Z 2100/2124 24010KT P6SM SCT200
     FM210300 23005KT P6SM BKN150
     FM211400 23008KT P6SM SCT100
     FM212000 24012KT P6SM BKN080=



000
FTUS41 KBUF 202033 AAA
TAFIAG
TAF AMD
KIAG 202033Z 2021/2118 23010KT P6SM SCT200
     FM210200 24004KT P6SM SCT200
     FM211100 23005KT P6SM BKN130
     FM211500 25009KT P6SM FEW110=



000
FTUS41 KBUF 202033 AAA
TAFROC
TAF AMD
KROC 202033Z 2021/2118 29014KT P6SM SCT200
     FM210000 28006KT P6SM SCT200
     FM210500 24005KT P6SM SCT140
     FM211200 24007KT P6SM BKN110
     FM211400 26008KT P6SM SCT090=



000
FTUS41 KBUF 202033 AAA
TAFJHW
TAF AMD
KJHW 202033Z 2021/2118 31008KT P6SM BKN200
     FM210200 VRB03KT P6SM BKN150
     FM211300 VRB03KT P6SM BKN070
     FM211400 27004KT P6SM BKN070
      AMD LTD TO CLD VIS AND WIND=



000
FTUS41 KBUF 202033 AAA
TAFBUF
TAF AMD
KBUF 202033Z 2021/2118 23012KT P6SM SCT200
     FM210000 24008KT P6SM SCT200
     FM210400 22004KT P6SM SCT200
     FM211200 23007KT P6SM BKN100
     FM211300 23007KT P6SM SCT080
     FM211700 25011KT P6SM SCT110=



000
FTUS41 KBUF 202033 AAA
TAFART
TAF AMD
KART 202033Z 2021/2118 25014G22KT P6SM SKC
     FM210000 23010KT P6SM FEW250
     FM210300 22005KT P6SM FEW200
     FM211300 23009KT P6SM BKN100
     FM211400 23010KT P6SM SCT110=



000
FTUS41 KBUF 201733
TAFART
TAF
KART 201733Z 2018/2118 26013KT P6SM SCT120
     FM210000 23009KT P6SM FEW250
     FM210400 22005KT P6SM FEW200
     FM211300 23009KT P6SM BKN100
     FM211400 23010KT P6SM SCT110=



000
FTUS41 KBUF 201733
TAFIAG
TAF
KIAG 201733Z 2018/2118 28012KT P6SM FEW250
     FM202300 25008KT P6SM FEW250
     FM210200 24004KT P6SM SCT200
     FM211100 23005KT P6SM BKN130
     FM211500 25009KT P6SM FEW110=



000
FTUS41 KBUF 201733
TAFBUF
TAF
KBUF 201733Z 2018/2118 27012KT P6SM FEW250
     FM210000 24008KT P6SM FEW200
     FM210400 22004KT P6SM SCT200
     FM211200 23007KT P6SM BKN100
     FM211300 23007KT P6SM SCT080
     FM211700 25011KT P6SM SCT110=



000
FTUS41 KBUF 201733
TAFROC
TAF
KROC 201733Z 2018/2118 29015G21KT P6SM FEW250
     FM202300 28010KT P6SM FEW250
     FM210100 28006KT P6SM FEW200
     FM210500 24005KT P6SM SCT140
     FM211200 24007KT P6SM BKN110
     FM211400 26008KT P6SM SCT090=



000
FTUS41 KBUF 201733
TAFJHW
TAF
KJHW 201733Z 2018/2118 31009KT P6SM SCT045
     FM202200 30008KT P6SM BKN200
     FM210200 VRB03KT P6SM BKN130
     FM211300 VRB03KT P6SM BKN070
     FM211400 27004KT P6SM BKN070
      AMD LTD TO CLD VIS AND WIND=



000
FTUS41 KBUF 201733
TAFART
TAF
KART 201733Z 2018/2118 26013KT P6SM SCT120
     FM210000 23009KT P6SM FEW250
     FM210400 22005KT P6SM FEW200
     FM211300 23009KT P6SM BKN100
     FM211400 23010KT P6SM SCT110=



000
FTUS41 KBUF 201733
TAFBUF
TAF
KBUF 201733Z 2018/2118 27012KT P6SM FEW250
     FM210000 24008KT P6SM FEW200
     FM210400 22004KT P6SM SCT200
     FM211200 23007KT P6SM BKN100
     FM211300 23007KT P6SM SCT080
     FM211700 25011KT P6SM SCT110=



000
FTUS41 KBUF 201733
TAFJHW
TAF
KJHW 201733Z 2018/2118 31009KT P6SM SCT045
     FM202200 30008KT P6SM BKN200
     FM210200 VRB03KT P6SM BKN130
     FM211300 VRB03KT P6SM BKN070
     FM211400 27004KT P6SM BKN070
      AMD LTD TO CLD VIS AND WIND=



000
FTUS41 KBUF 201733
TAFROC
TAF
KROC 201733Z 2018/2118 29015G21KT P6SM FEW250
     FM202300 28010KT P6SM FEW250
     FM210100 28006KT P6SM FEW200
     FM210500 24005KT P6SM SCT140
     FM211200 24007KT P6SM BKN110
     FM211400 26008KT P6SM SCT090=



000
FTUS41 KBUF 201733
TAFIAG
TAF
KIAG 201733Z 2018/2118 28012KT P6SM FEW250
     FM202300 25008KT P6SM FEW250
     FM210200 24004KT P6SM SCT200
     FM211100 23005KT P6SM BKN130
     FM211500 25009KT P6SM FEW110=



000
FTUS41 KBUF 201500 AAA
TAFJHW
TAF AMD
KJHW 201500Z 2015/2112 31010KT P6SM BKN020
     FM201600 31010KT P6SM BKN035
     FM201800 31009KT P6SM SCT040
     FM202300 30006KT P6SM SCT200
     FM210200 VRB04KT P6SM BKN120
      AMD LTD TO CLD VIS AND WIND=



000
FTUS41 KBUF 201500 AAA
TAFART
TAF AMD
KART 201500Z 2015/2112 28012G20KT P6SM BKN035
     FM201700 27012G18KT P6SM SCT040
     FM202000 26012KT P6SM SCT250
     FM210000 23009KT P6SM FEW250
     FM210400 23006KT P6SM BKN200=



000
FTUS41 KBUF 201500 AAA
TAFROC
TAF AMD
KROC 201500Z 2015/2112 32012G18KT P6SM BKN035
     FM201700 29014G21KT P6SM SCT040
     FM202100 29011KT P6SM FEW250
     FM210200 27006KT P6SM SCT200
     FM210500 25006KT P6SM BKN150=



000
FTUS41 KBUF 201500 AAA
TAFIAG
TAF AMD
KIAG 201500Z 2015/2112 29010G16KT P6SM SCT025 BKN035
     FM201600 29011KT P6SM SCT040
     FM202200 26007KT P6SM SCT200
     FM210400 24004KT P6SM BKN150=



000
FTUS41 KBUF 201500 AAA
TAFBUF
TAF AMD
KBUF 201500Z 2015/2112 29011KT P6SM BKN035
     FM201700 27011KT P6SM SCT040
     FM202200 25009KT P6SM SCT200
     FM210500 22004KT P6SM BKN150=



000
FTUS41 KBUF 201129
TAFBUF
TAF
KBUF 201129Z 2012/2112 29013KT P6SM BKN025
     FM201500 28011KT P6SM BKN035
     FM201700 27011KT P6SM SCT040
     FM202200 25009KT P6SM SCT200
     FM210500 22004KT P6SM BKN150=



000
FTUS41 KBUF 201129
TAFIAG
TAF
KIAG 201129Z 2012/2112 29012KT P6SM SCT025 BKN035
     FM201600 29011KT P6SM SCT040
     FM202200 26007KT P6SM SCT200
     FM210400 24004KT P6SM BKN150=



000
FTUS41 KBUF 201129
TAFART
TAF
KART 201129Z 2012/2112 26012G20KT P6SM OVC025
     FM201400 28012G20KT P6SM BKN035
     FM201700 27012G18KT P6SM SCT040
     FM202000 26012KT P6SM SCT250
     FM210000 23009KT P6SM FEW250
     FM210400 23006KT P6SM BKN200=



000
FTUS41 KBUF 201129
TAFROC
TAF
KROC 201129Z 2012/2112 30012G20KT P6SM BKN025
     FM201500 29014G21KT P6SM BKN035
     FM201700 29014G21KT P6SM SCT040
     FM202100 29011KT P6SM FEW250
     FM210200 27006KT P6SM SCT200
     FM210500 25006KT P6SM BKN150=



000
FTUS41 KBUF 201129
TAFJHW
TAF
KJHW 201129Z 2012/2112 31011KT P6SM OVC012
     FM201400 31010KT P6SM BKN020
     FM201600 31010KT P6SM BKN035
     FM201800 31009KT P6SM SCT040
     FM202300 30006KT P6SM SCT200
     FM210200 VRB04KT P6SM BKN120
      AMD LTD TO CLD VIS AND WIND=



000
FTUS41 KBUF 200852 AAA
TAFIAG
TAF AMD
KIAG 200852Z 2009/2106 30013G22KT P6SM BKN025
     FM201400 30011KT P6SM BKN035
     FM201500 29011KT P6SM SCT250
     FM202200 26007KT P6SM SCT200
     FM210400 24004KT P6SM BKN140=



000
FTUS41 KBUF 200852 AAA
TAFJHW
TAF AMD
KJHW 200852Z 2009/2106 30009KT P6SM BKN020
     FM201600 31010KT P6SM SCT200
     FM202200 30007KT P6SM SCT150
     FM210200 28004KT P6SM BKN120
      AMD LTD TO CLD VIS AND WIND=



000
FTUS41 KBUF 200852 AAA
TAFBUF
TAF AMD
KBUF 200852Z 2009/2106 30012G18KT P6SM BKN025
     FM201400 29011KT P6SM BKN035
     FM201600 28011KT P6SM SCT250
     FM202200 25009KT P6SM SCT200
     FM210300 23006KT P6SM BKN140=



000
FTUS41 KBUF 200852 AAA
TAFART
TAF AMD
KART 200852Z 2009/2106 28014G20KT P6SM OVC025
     FM201200 29011KT P6SM OVC025
     FM201400 29011KT P6SM BKN035
     FM201800 27012G18KT P6SM SCT250
     FM202200 24011KT P6SM SCT250
     FM210300 23007KT P6SM SCT250=



000
FTUS41 KBUF 200852 AAA
TAFROC
TAF AMD
KROC 200852Z 2009/2106 30014G23KT P6SM BKN025
     FM201400 29014G21KT P6SM BKN035
     FM201600 29014G21KT P6SM SCT250
     FM202100 29011KT P6SM FEW250
     FM210500 25006KT P6SM BKN130=



000
FTUS41 KBUF 200537
TAFJHW
TAF
KJHW 200537Z 2006/2106 31006KT P6SM SCT007 OVC015
      TEMPO 2006/2007 BKN007
     FM200900 31008KT P6SM BKN020
     FM201600 31010KT P6SM SCT200
     FM202200 30007KT P6SM SCT150
     FM210200 28004KT P6SM BKN120
      AMD LTD TO CLD VIS AND WIND=



000
FTUS41 KBUF 200537
TAFART
TAF
KART 200537Z 2006/2106 27018G25KT P6SM BKN045
     FM200900 28014G20KT P6SM OVC025
     FM201200 29011KT P6SM OVC025
     FM201400 29011KT P6SM BKN035
     FM201800 27012G18KT P6SM SCT250
     FM202200 24011KT P6SM SCT250
     FM210300 23007KT P6SM SCT250=



000
FTUS41 KBUF 200537
TAFROC
TAF
KROC 200537Z 2006/2106 29015G22KT P6SM OVC035
     FM200900 29014G21KT P6SM BKN025
     FM201400 29014G21KT P6SM BKN035
     FM201600 29014G21KT P6SM SCT250
     FM202100 29011KT P6SM FEW250
     FM210500 25006KT P6SM BKN130=



000
FTUS41 KBUF 200537
TAFIAG
TAF
KIAG 200537Z 2006/2106 30013KT P6SM OVC045
     FM200900 30012KT P6SM BKN025
     FM201400 30011KT P6SM BKN035
     FM201500 29011KT P6SM SCT250
     FM202200 26007KT P6SM SCT200
     FM210400 24004KT P6SM BKN140=



000
FTUS41 KBUF 200537
TAFBUF
TAF
KBUF 200537Z 2006/2106 31010KT P6SM BKN035
     FM200900 30010KT P6SM BKN025
     FM201400 29011KT P6SM BKN035
     FM201600 28011KT P6SM SCT250
     FM202200 25009KT P6SM SCT200
     FM210300 23006KT P6SM BKN140=



000
FTUS41 KBUF 200537
TAFIAG
TAF
KIAG 200537Z 2006/2106 30013KT P6SM OVC045
     FM200900 30012KT P6SM BKN025
     FM201400 30011KT P6SM BKN035
     FM201500 29011KT P6SM SCT250
     FM202200 26007KT P6SM SCT200
     FM210400 24004KT P6SM BKN140=



000
FTUS41 KBUF 200537
TAFBUF
TAF
KBUF 200537Z 2006/2106 31010KT P6SM BKN035
     FM200900 30010KT P6SM BKN025
     FM201400 29011KT P6SM BKN035
     FM201600 28011KT P6SM SCT250
     FM202200 25009KT P6SM SCT200
     FM210300 23006KT P6SM BKN140=



000
FTUS41 KBUF 200537
TAFROC
TAF
KROC 200537Z 2006/2106 29015G22KT P6SM OVC035
     FM200900 29014G21KT P6SM BKN025
     FM201400 29014G21KT P6SM BKN035
     FM201600 29014G21KT P6SM SCT250
     FM202100 29011KT P6SM FEW250
     FM210500 25006KT P6SM BKN130=



000
FTUS41 KBUF 200537
TAFART
TAF
KART 200537Z 2006/2106 27018G25KT P6SM BKN045
     FM200900 28014G20KT P6SM OVC025
     FM201200 29011KT P6SM OVC025
     FM201400 29011KT P6SM BKN035
     FM201800 27012G18KT P6SM SCT250
     FM202200 24011KT P6SM SCT250
     FM210300 23007KT P6SM SCT250=



000
FTUS41 KBUF 200537
TAFJHW
TAF
KJHW 200537Z 2006/2106 31006KT P6SM SCT007 OVC015
      TEMPO 2006/2007 BKN007
     FM200900 31008KT P6SM BKN020
     FM201600 31010KT P6SM SCT200
     FM202200 30007KT P6SM SCT150
     FM210200 28004KT P6SM BKN120
      AMD LTD TO CLD VIS AND WIND=



000
FTUS41 KBUF 200244 AAB
TAFBUF
TAF AMD
KBUF 200244Z 2003/2024 30012KT P6SM OVC025
     FM200400 29010KT P6SM OVC035
     FM200800 28010KT P6SM SCT040
     FM201900 25014G22KT P6SM SCT200=



000
FTUS41 KBUF 200244 AAA
TAFART
TAF AMD
KART 200244Z 2003/2024 24010KT P6SM SCT050
     FM200600 26010KT P6SM BKN040
     FM200900 30010KT P6SM BKN025
     FM201400 29014G22KT P6SM BKN040
     FM201800 25014G22KT P6SM SCT200=



000
FTUS41 KBUF 200244 AAC
TAFIAG
TAF AMD
KIAG 200244Z 2003/2024 30010KT P6SM OVC035
     FM200700 28010KT P6SM SCT040
     FM201600 26012G18KT P6SM SCT040
     FM202100 25010KT P6SM SCT200=



000
FTUS41 KBUF 200244 AAB
TAFROC
TAF AMD
KROC 200244Z 2003/2024 31012KT P6SM OVC030
     FM200400 28012KT P6SM OVC040
     FM200700 29012KT P6SM SCT040
     FM201500 29014G22KT P6SM SCT200=



000
FTUS41 KBUF 200244 AAB
TAFJHW
TAF AMD
KJHW 200244Z 2003/2024 31010KT P6SM BKN006 OVC015
     FM200400 30010KT P6SM OVC015
     FM200900 31008KT P6SM BKN025
     FM201600 31010G16KT P6SM BKN200
      AMD LTD TO CLD VIS AND WIND=



000
FTUS41 KBUF 200244 AAB
TAFBUF
TAF AMD
KBUF 200244Z 2003/2024 30012KT P6SM OVC025
     FM200400 29010KT P6SM OVC035
     FM200800 28010KT P6SM SCT040
     FM201900 25014G22KT P6SM SCT200=



000
FTUS41 KBUF 200227 AAA
TAFJHW
TAF AMD
KJHW 200227Z 2002/2024 29010KT P6SM OVC015
     FM200900 31008KT P6SM BKN025
     FM201600 31010KT P6SM BKN200
      AMD LTD TO CLD VIS AND WIND=



000
FTUS41 KBUF 200132 AAA
TAFROC
TAF AMD
KROC 200132Z 2002/2024 29012KT P6SM BKN030
     FM200300 28012KT P6SM BKN040
     FM200600 29012KT P6SM SCT040
     FM201500 29014G22KT P6SM SCT200=



000
FTUS41 KBUF 200131 AAB
TAFIAG
TAF AMD
KIAG 200131Z 2002/2024 30014KT P6SM OVC030
     FM200300 29010KT P6SM BKN035
     FM200600 28010KT P6SM SCT040
     FM202100 25010KT P6SM SCT200=



000
FTUS41 KBUF 200130 AAC
TAFBUF
TAF AMD
KBUF 200130Z 2002/2024 30012KT P6SM OVC025
     FM200400 29010KT P6SM BKN035
     FM200800 28010KT P6SM SCT040
     FM201900 25014KT P6SM SCT200=



000
FTUS41 KBUF 200130 AAC
TAFBUF
TAF AMD
KBUF 200130Z 2002/2024 30012KT P6SM OVC025
     FM200400 29010KT P6SM BKN035
     FM200800 28010KT P6SM SCT040
     FM201900 25014KT P6SM SCT200=



000
FTUS41 KBUF 200037 AAB
TAFBUF
TAF AMD
KBUF 200037Z 2001/2024 26012KT P6SM VCSH OVC040
     FM200115 29012KT P6SM OVC040
     FM200600 28010KT P6SM SCT040
     FM201900 25014KT P6SM SCT200=



000
FTUS41 KBUF 200037 AAB
TAFBUF
TAF AMD
KBUF 200037Z 2001/2024 26012KT P6SM VCSH OVC040
     FM200115 29012KT P6SM OVC040
     FM200600 28010KT P6SM SCT040
     FM201900 25014KT P6SM SCT200=



000
FTUS41 KBUF 200035 AAA
TAFIAG
TAF AMD
KIAG 200035Z 2001/2024 30014KT P6SM OVC040
     FM200500 28010KT P6SM SCT040
     FM202100 25010KT P6SM SCT200=



000
FTUS41 KBUF 200035 AAA
TAFIAG
TAF AMD
KIAG 200035Z 2001/2024 30014KT P6SM OVC040
     FM200500 28010KT P6SM SCT040
     FM202100 25010KT P6SM SCT200=



000
FTUS41 KBUF 192340
TAFIAG
TAF
KIAG 192340Z 2000/2024 28014KT P6SM OVC040
     FM200500 28010KT P6SM SCT040
     FM202100 25010KT P6SM SCT200=



000
FTUS41 KBUF 192340
TAFROC
TAF
KROC 192340Z 2000/2024 28012KT P6SM BKN040
     FM200500 29012KT P6SM SCT040
     FM201500 29014G22KT P6SM SCT200=



000
FTUS41 KBUF 192340
TAFART
TAF
KART 192340Z 2000/2024 25012KT P6SM SCT050
     FM200600 25011KT P6SM BKN025
     FM201400 29012G18KT P6SM BKN045
     FM201700 27013KT P6SM SCT200=



000
FTUS41 KBUF 192340
TAFBUF
TAF
KBUF 192340Z 2000/2024 25014KT P6SM OVC040
     FM200200 27010KT P6SM BKN040
     FM200600 28010KT P6SM SCT040
     FM201900 25014KT P6SM SCT200=



000
FTUS41 KBUF 192340
TAFJHW
TAF
KJHW 192340Z 2000/2024 27012KT P6SM OVC035
     FM200100 29010KT P6SM OVC025
     FM200900 31008KT P6SM BKN025
     FM201600 31010KT P6SM BKN200
      AMD LTD TO CLD VIS AND WIND=



000
FTUS41 KBUF 192050 AAA
TAFROC
TAF AMD
KROC 192050Z 1921/2018 29016G24KT P6SM BKN050
     FM200000 27014KT P6SM BKN035
     FM200500 28013G21KT P6SM BKN250
     FM200900 27012G20KT P6SM BKN150
     FM201300 29014G22KT P6SM BKN200=



000
FTUS41 KBUF 192050 AAA
TAFBUF
TAF AMD
KBUF 192050Z 1921/2018 25018KT P6SM BKN040
     FM200300 29012KT P6SM BKN040
     FM201000 28012KT P6SM BKN110
     FM201300 29011G17KT P6SM BKN120=



000
FTUS41 KBUF 192050 AAA
TAFIAG
TAF AMD
KIAG 192050Z 1921/2018 28016KT P6SM BKN040
     FM200100 28013G20KT P6SM BKN060
     FM200300 29012KT P6SM SCT200=



000
FTUS41 KBUF 192050 AAA
TAFART
TAF AMD
KART 192050Z 1921/2018 24015G24KT P6SM SCT070
     FM200000 25012KT P6SM BKN050
     FM200600 25011KT P6SM BKN025
     FM201400 29012G18KT P6SM BKN045
     FM201700 27013KT P6SM BKN130=



000
FTUS41 KBUF 192050 AAA
TAFJHW
TAF AMD
KJHW 192050Z 1921/2018 27014G20KT P6SM BKN035
     FM192300 27012G18KT P6SM BKN025
     FM200600 31010KT P6SM BKN025
     FM201100 31009KT P6SM BKN015
     FM201400 31010G16KT P6SM BKN070
     FM201600 31010KT P6SM BKN200
      AMD LTD TO CLD VIS AND WIND=



000
FTUS41 KBUF 192050 AAA
TAFROC
TAF AMD
KROC 192050Z 1921/2018 29016G24KT P6SM BKN050
     FM200000 27014KT P6SM BKN035
     FM200500 28013G21KT P6SM BKN250
     FM200900 27012G20KT P6SM BKN150
     FM201300 29014G22KT P6SM BKN200=



000
FTUS41 KBUF 192050 AAA
TAFART
TAF AMD
KART 192050Z 1921/2018 24015G24KT P6SM SCT070
     FM200000 25012KT P6SM BKN050
     FM200600 25011KT P6SM BKN025
     FM201400 29012G18KT P6SM BKN045
     FM201700 27013KT P6SM BKN130=



000
FTUS41 KBUF 192050 AAA
TAFJHW
TAF AMD
KJHW 192050Z 1921/2018 27014G20KT P6SM BKN035
     FM192300 27012G18KT P6SM BKN025
     FM200600 31010KT P6SM BKN025
     FM201100 31009KT P6SM BKN015
     FM201400 31010G16KT P6SM BKN070
     FM201600 31010KT P6SM BKN200
      AMD LTD TO CLD VIS AND WIND=



000
FTUS41 KBUF 192050 AAA
TAFBUF
TAF AMD
KBUF 192050Z 1921/2018 25018KT P6SM BKN040
     FM200300 29012KT P6SM BKN040
     FM201000 28012KT P6SM BKN110
     FM201300 29011G17KT P6SM BKN120=



000
FTUS41 KBUF 192050 AAA
TAFIAG
TAF AMD
KIAG 192050Z 1921/2018 28016KT P6SM BKN040
     FM200100 28013G20KT P6SM BKN060
     FM200300 29012KT P6SM SCT200=



    US Dept of Commerce
    National Oceanic and Atmospheric Administration
    National Weather Service
    1325 East West Highway
    Silver Spring, MD 20910
    Page Author: NWS Internet Services Team
Disclaimer
Information Quality
Credits
Glossary
Privacy Policy
Freedom of Information Act (FOIA)
About Us
Career Opportunities